sensor_id;sensor_type;location;lat;lon;timestamp;P1;durP1;ratioP1;P2;durP2;ratioP2
41343;SDS011;27089;50.022;7.604;2023-02-28T00:00:12;2.20;;;1.90;;
41343;SDS011;27089;50.022;7.604;2023-02-28T00:02:40;1.50;;;1.40;;
41343;SDS011;27089;50.022;7.604;2023-02-28T00:05:09;2.70;;;1.70;;
41343;SDS011;27089;50.022;7.604;2023-02-28T00:07:37;3.67;;;1.80;;
41343;SDS011;27089;50.022;7.604;2023-02-28T00:10:05;2.97;;;1.50;;
41343;SDS011;27089;50.022;7.604;2023-02-28T00:12:35;1.97;;;1.70;;
41343;SDS011;27089;50.022;7.604;2023-02-28T00:15:03;2.53;;;1.73;;
41343;SDS011;27089;50.022;7.604;2023-02-28T00:17:32;2.17;;;1.37;;
41343;SDS011;27089;50.022;7.604;2023-02-28T00:19:59;3.17;;;1.73;;
41343;SDS011;27089;50.022;7.604;2023-02-28T00:22:37;1.93;;;1.50;;
41343;SDS011;27089;50.022;7.604;2023-02-28T00:25:05;1.83;;;1.50;;
41343;SDS011;27089;50.022;7.604;2023-02-28T00:27:34;2.53;;;1.60;;
41343;SDS011;27089;50.022;7.604;2023-02-28T00:30:02;2.70;;;1.20;;
41343;SDS011;27089;50.022;7.604;2023-02-28T00:32:31;2.03;;;1.30;;
41343;SDS011;27089;50.022;7.604;2023-02-28T00:34:59;2.80;;;1.70;;
41343;SDS011;27089;50.022;7.604;2023-02-28T00:37:26;1.67;;;1.20;;
41343;SDS011;27089;50.022;7.604;2023-02-28T00:39:53;2.83;;;2.00;;
41343;SDS011;27089;50.022;7.604;2023-02-28T00:42:20;3.90;;;1.53;;
41343;SDS011;27089;50.022;7.604;2023-02-28T00:44:49;2.83;;;1.70;;
41343;SDS011;27089;50.022;7.604;2023-02-28T00:47:16;2.87;;;1.77;;
41343;SDS011;27089;50.022;7.604;2023-02-28T00:49:43;1.70;;;1.53;;
41343;SDS011;27089;50.022;7.604;2023-02-28T00:52:10;2.17;;;1.43;;
41343;SDS011;27089;50.022;7.604;2023-02-28T00:54:37;2.67;;;1.47;;
41343;SDS011;27089;50.022;7.604;2023-02-28T00:57:04;2.03;;;1.57;;
41343;SDS011;27089;50.022;7.604;2023-02-28T00:59:31;1.40;;;1.30;;
41343;SDS011;27089;50.022;7.604;2023-02-28T01:01:59;2.20;;;1.60;;
41343;SDS011;27089;50.022;7.604;2023-02-28T01:04:26;1.57;;;1.40;;
41343;SDS011;27089;50.022;7.604;2023-02-28T01:06:53;1.57;;;1.13;;
41343;SDS011;27089;50.022;7.604;2023-02-28T01:09:20;2.17;;;1.50;;
41343;SDS011;27089;50.022;7.604;2023-02-28T01:11:47;1.70;;;1.60;;
41343;SDS011;27089;50.022;7.604;2023-02-28T01:14:14;1.73;;;1.57;;
41343;SDS011;27089;50.022;7.604;2023-02-28T01:16:43;3.70;;;1.70;;
41343;SDS011;27089;50.022;7.604;2023-02-28T01:19:12;2.23;;;1.80;;
41343;SDS011;27089;50.022;7.604;2023-02-28T01:21:39;2.47;;;1.53;;
41343;SDS011;27089;50.022;7.604;2023-02-28T01:24:06;1.77;;;1.50;;
41343;SDS011;27089;50.022;7.604;2023-02-28T01:26:33;2.10;;;1.60;;
41343;SDS011;27089;50.022;7.604;2023-02-28T01:29:00;2.73;;;1.70;;
41343;SDS011;27089;50.022;7.604;2023-02-28T01:31:27;3.57;;;1.90;;
41343;SDS011;27089;50.022;7.604;2023-02-28T01:33:54;3.13;;;2.20;;
41343;SDS011;27089;50.022;7.604;2023-02-28T01:36:23;1.60;;;1.50;;
41343;SDS011;27089;50.022;7.604;2023-02-28T01:38:50;2.47;;;1.70;;
41343;SDS011;27089;50.022;7.604;2023-02-28T01:41:19;2.93;;;2.10;;
41343;SDS011;27089;50.022;7.604;2023-02-28T01:43:55;2.57;;;1.73;;
41343;SDS011;27089;50.022;7.604;2023-02-28T01:46:29;3.27;;;2.10;;
41343;SDS011;27089;50.022;7.604;2023-02-28T01:48:58;3.67;;;2.20;;
41343;SDS011;27089;50.022;7.604;2023-02-28T01:51:31;2.40;;;1.93;;
41343;SDS011;27089;50.022;7.604;2023-02-28T01:54:04;3.23;;;2.40;;
41343;SDS011;27089;50.022;7.604;2023-02-28T01:56:39;4.53;;;2.70;;
41343;SDS011;27089;50.022;7.604;2023-02-28T01:59:10;4.00;;;2.60;;
41343;SDS011;27089;50.022;7.604;2023-02-28T02:01:41;4.40;;;2.90;;
41343;SDS011;27089;50.022;7.604;2023-02-28T02:04:08;4.87;;;2.80;;
41343;SDS011;27089;50.022;7.604;2023-02-28T02:06:37;3.50;;;2.50;;
41343;SDS011;27089;50.022;7.604;2023-02-28T02:09:08;4.27;;;2.47;;
41343;SDS011;27089;50.022;7.604;2023-02-28T02:11:35;3.40;;;2.60;;
41343;SDS011;27089;50.022;7.604;2023-02-28T02:17:11;3.00;;;2.70;;
41343;SDS011;27089;50.022;7.604;2023-02-28T02:23:06;5.00;;;3.00;;
41343;SDS011;27089;50.022;7.604;2023-02-28T02:29:19;4.00;;;3.23;;
41343;SDS011;27089;50.022;7.604;2023-02-28T02:35:07;7.43;;;3.37;;
41343;SDS011;27089;50.022;7.604;2023-02-28T02:37:42;6.63;;;4.00;;
41343;SDS011;27089;50.022;7.604;2023-02-28T02:40:15;6.70;;;3.43;;
41343;SDS011;27089;50.022;7.604;2023-02-28T02:42:46;5.13;;;3.57;;
41343;SDS011;27089;50.022;7.604;2023-02-28T02:45:18;4.90;;;3.63;;
41343;SDS011;27089;50.022;7.604;2023-02-28T02:47:50;8.00;;;3.90;;
41343;SDS011;27089;50.022;7.604;2023-02-28T02:50:22;5.03;;;3.87;;
41343;SDS011;27089;50.022;7.604;2023-02-28T02:52:52;5.37;;;3.30;;
41343;SDS011;27089;50.022;7.604;2023-02-28T02:55:22;4.60;;;3.70;;
41343;SDS011;27089;50.022;7.604;2023-02-28T02:57:51;4.90;;;3.93;;
41343;SDS011;27089;50.022;7.604;2023-02-28T03:00:22;7.37;;;4.70;;
41343;SDS011;27089;50.022;7.604;2023-02-28T03:02:52;6.13;;;4.40;;
41343;SDS011;27089;50.022;7.604;2023-02-28T03:05:27;6.43;;;4.03;;
41343;SDS011;27089;50.022;7.604;2023-02-28T03:07:58;8.00;;;4.40;;
41343;SDS011;27089;50.022;7.604;2023-02-28T03:10:34;6.47;;;4.37;;
41343;SDS011;27089;50.022;7.604;2023-02-28T03:13:17;7.47;;;4.47;;
41343;SDS011;27089;50.022;7.604;2023-02-28T03:16:08;6.27;;;4.23;;
41343;SDS011;27089;50.022;7.604;2023-02-28T03:18:48;6.27;;;4.80;;
41343;SDS011;27089;50.022;7.604;2023-02-28T03:21:23;7.80;;;4.80;;
41343;SDS011;27089;50.022;7.604;2023-02-28T03:23:56;6.77;;;4.83;;
41343;SDS011;27089;50.022;7.604;2023-02-28T03:26:30;7.17;;;4.40;;
41343;SDS011;27089;50.022;7.604;2023-02-28T03:29:02;9.97;;;4.80;;
41343;SDS011;27089;50.022;7.604;2023-02-28T03:31:32;7.97;;;5.40;;
41343;SDS011;27089;50.022;7.604;2023-02-28T03:34:04;7.17;;;5.20;;
41343;SDS011;27089;50.022;7.604;2023-02-28T03:36:38;8.13;;;5.30;;
41343;SDS011;27089;50.022;7.604;2023-02-28T03:39:09;7.73;;;5.33;;
41343;SDS011;27089;50.022;7.604;2023-02-28T03:41:42;9.77;;;5.70;;
41343;SDS011;27089;50.022;7.604;2023-02-28T03:44:16;10.23;;;6.13;;
41343;SDS011;27089;50.022;7.604;2023-02-28T03:46:51;9.27;;;5.77;;
41343;SDS011;27089;50.022;7.604;2023-02-28T03:49:24;9.50;;;6.00;;
41343;SDS011;27089;50.022;7.604;2023-02-28T03:51:56;8.33;;;6.30;;
41343;SDS011;27089;50.022;7.604;2023-02-28T03:54:26;8.93;;;6.23;;
41343;SDS011;27089;50.022;7.604;2023-02-28T03:56:57;8.60;;;5.60;;
41343;SDS011;27089;50.022;7.604;2023-02-28T03:59:30;8.30;;;5.97;;
41343;SDS011;27089;50.022;7.604;2023-02-28T04:02:01;9.43;;;6.30;;
41343;SDS011;27089;50.022;7.604;2023-02-28T04:04:28;9.10;;;5.97;;
41343;SDS011;27089;50.022;7.604;2023-02-28T04:07:02;12.80;;;5.60;;
41343;SDS011;27089;50.022;7.604;2023-02-28T04:09:30;8.80;;;5.90;;
41343;SDS011;27089;50.022;7.604;2023-02-28T04:11:58;10.10;;;6.13;;
41343;SDS011;27089;50.022;7.604;2023-02-28T04:14:25;9.77;;;6.27;;
41343;SDS011;27089;50.022;7.604;2023-02-28T04:16:52;11.00;;;6.47;;
41343;SDS011;27089;50.022;7.604;2023-02-28T04:19:19;12.53;;;6.63;;
41343;SDS011;27089;50.022;7.604;2023-02-28T04:21:47;11.57;;;6.37;;
41343;SDS011;27089;50.022;7.604;2023-02-28T04:24:17;10.63;;;6.57;;
41343;SDS011;27089;50.022;7.604;2023-02-28T04:26:46;12.10;;;6.90;;
41343;SDS011;27089;50.022;7.604;2023-02-28T04:29:18;10.30;;;7.40;;
41343;SDS011;27089;50.022;7.604;2023-02-28T04:31:46;11.17;;;6.70;;
41343;SDS011;27089;50.022;7.604;2023-02-28T04:34:13;11.27;;;7.37;;
41343;SDS011;27089;50.022;7.604;2023-02-28T04:36:40;9.97;;;6.83;;
41343;SDS011;27089;50.022;7.604;2023-02-28T04:39:07;13.73;;;7.30;;
41343;SDS011;27089;50.022;7.604;2023-02-28T04:41:36;10.93;;;6.90;;
41343;SDS011;27089;50.022;7.604;2023-02-28T04:44:03;10.60;;;6.90;;
41343;SDS011;27089;50.022;7.604;2023-02-28T04:46:30;13.60;;;8.13;;
41343;SDS011;27089;50.022;7.604;2023-02-28T04:48:57;13.27;;;7.87;;
41343;SDS011;27089;50.022;7.604;2023-02-28T04:51:24;11.20;;;6.87;;
41343;SDS011;27089;50.022;7.604;2023-02-28T04:53:51;10.80;;;7.33;;
41343;SDS011;27089;50.022;7.604;2023-02-28T04:56:19;11.23;;;7.30;;
41343;SDS011;27089;50.022;7.604;2023-02-28T04:58:47;12.63;;;7.50;;
41343;SDS011;27089;50.022;7.604;2023-02-28T05:01:20;11.20;;;6.87;;
41343;SDS011;27089;50.022;7.604;2023-02-28T05:03:49;10.37;;;6.67;;
41343;SDS011;27089;50.022;7.604;2023-02-28T05:06:17;13.37;;;7.07;;
41343;SDS011;27089;50.022;7.604;2023-02-28T05:08:45;12.27;;;7.90;;
41343;SDS011;27089;50.022;7.604;2023-02-28T05:11:17;12.67;;;7.47;;
41343;SDS011;27089;50.022;7.604;2023-02-28T05:13:45;11.40;;;6.23;;
41343;SDS011;27089;50.022;7.604;2023-02-28T05:16:14;9.73;;;6.50;;
41343;SDS011;27089;50.022;7.604;2023-02-28T05:18:41;9.47;;;6.60;;
41343;SDS011;27089;50.022;7.604;2023-02-28T05:21:17;10.07;;;6.53;;
41343;SDS011;27089;50.022;7.604;2023-02-28T05:23:52;9.57;;;6.27;;
41343;SDS011;27089;50.022;7.604;2023-02-28T05:26:20;9.03;;;6.70;;
41343;SDS011;27089;50.022;7.604;2023-02-28T05:28:47;9.07;;;6.20;;
41343;SDS011;27089;50.022;7.604;2023-02-28T05:31:15;8.07;;;6.10;;
41343;SDS011;27089;50.022;7.604;2023-02-28T05:33:43;9.27;;;5.90;;
41343;SDS011;27089;50.022;7.604;2023-02-28T05:36:10;8.90;;;6.57;;
41343;SDS011;27089;50.022;7.604;2023-02-28T05:38:37;11.77;;;6.87;;
41343;SDS011;27089;50.022;7.604;2023-02-28T05:41:06;11.27;;;6.93;;
41343;SDS011;27089;50.022;7.604;2023-02-28T05:43:34;10.73;;;6.50;;
41343;SDS011;27089;50.022;7.604;2023-02-28T05:46:02;11.17;;;6.60;;
41343;SDS011;27089;50.022;7.604;2023-02-28T05:48:32;9.87;;;7.33;;
41343;SDS011;27089;50.022;7.604;2023-02-28T05:50:59;11.50;;;6.40;;
41343;SDS011;27089;50.022;7.604;2023-02-28T05:53:27;11.17;;;6.97;;
41343;SDS011;27089;50.022;7.604;2023-02-28T05:55:54;9.03;;;6.87;;
41343;SDS011;27089;50.022;7.604;2023-02-28T05:58:21;10.20;;;7.73;;
41343;SDS011;27089;50.022;7.604;2023-02-28T06:00:50;11.10;;;7.30;;
41343;SDS011;27089;50.022;7.604;2023-02-28T06:03:17;12.17;;;7.17;;
41343;SDS011;27089;50.022;7.604;2023-02-28T06:05:45;9.10;;;5.87;;
41343;SDS011;27089;50.022;7.604;2023-02-28T06:08:12;11.80;;;7.20;;
41343;SDS011;27089;50.022;7.604;2023-02-28T06:10:39;10.97;;;6.33;;
41343;SDS011;27089;50.022;7.604;2023-02-28T06:13:06;9.20;;;6.33;;
41343;SDS011;27089;50.022;7.604;2023-02-28T06:15:33;13.97;;;7.07;;
41343;SDS011;27089;50.022;7.604;2023-02-28T06:18:00;11.63;;;7.23;;
41343;SDS011;27089;50.022;7.604;2023-02-28T06:20:27;13.27;;;7.13;;
41343;SDS011;27089;50.022;7.604;2023-02-28T06:22:56;11.03;;;6.83;;
41343;SDS011;27089;50.022;7.604;2023-02-28T06:25:23;10.63;;;7.37;;
41343;SDS011;27089;50.022;7.604;2023-02-28T06:27:51;13.23;;;7.33;;
41343;SDS011;27089;50.022;7.604;2023-02-28T06:30:18;9.30;;;6.30;;
41343;SDS011;27089;50.022;7.604;2023-02-28T06:32:48;10.10;;;6.77;;
41343;SDS011;27089;50.022;7.604;2023-02-28T06:35:15;9.70;;;6.10;;
41343;SDS011;27089;50.022;7.604;2023-02-28T06:37:42;8.57;;;6.10;;
41343;SDS011;27089;50.022;7.604;2023-02-28T06:40:11;9.90;;;7.20;;
41343;SDS011;27089;50.022;7.604;2023-02-28T06:42:39;10.33;;;6.93;;
41343;SDS011;27089;50.022;7.604;2023-02-28T06:45:06;11.50;;;7.33;;
41343;SDS011;27089;50.022;7.604;2023-02-28T06:47:35;11.40;;;6.97;;
41343;SDS011;27089;50.022;7.604;2023-02-28T06:50:03;14.07;;;7.17;;
41343;SDS011;27089;50.022;7.604;2023-02-28T06:52:31;8.67;;;6.40;;
41343;SDS011;27089;50.022;7.604;2023-02-28T06:55:01;10.60;;;7.07;;
41343;SDS011;27089;50.022;7.604;2023-02-28T06:57:30;9.83;;;6.13;;
41343;SDS011;27089;50.022;7.604;2023-02-28T06:59:58;9.67;;;6.00;;
41343;SDS011;27089;50.022;7.604;2023-02-28T07:02:25;9.77;;;6.23;;
41343;SDS011;27089;50.022;7.604;2023-02-28T07:04:52;9.47;;;6.13;;
41343;SDS011;27089;50.022;7.604;2023-02-28T07:07:19;9.60;;;6.53;;
41343;SDS011;27089;50.022;7.604;2023-02-28T07:09:46;9.57;;;6.53;;
41343;SDS011;27089;50.022;7.604;2023-02-28T07:12:13;11.07;;;6.13;;
41343;SDS011;27089;50.022;7.604;2023-02-28T07:14:43;39.23;;;20.77;;
41343;SDS011;27089;50.022;7.604;2023-02-28T07:17:10;25.20;;;12.60;;
41343;SDS011;27089;50.022;7.604;2023-02-28T07:19:37;22.60;;;11.50;;
41343;SDS011;27089;50.022;7.604;2023-02-28T07:22:04;25.20;;;12.40;;
41343;SDS011;27089;50.022;7.604;2023-02-28T07:24:31;51.17;;;18.20;;
41343;SDS011;27089;50.022;7.604;2023-02-28T07:26:58;28.53;;;15.13;;
41343;SDS011;27089;50.022;7.604;2023-02-28T07:29:26;13.40;;;8.67;;
41343;SDS011;27089;50.022;7.604;2023-02-28T07:31:54;10.03;;;5.23;;
41343;SDS011;27089;50.022;7.604;2023-02-28T07:34:22;6.03;;;4.63;;
41343;SDS011;27089;50.022;7.604;2023-02-28T07:36:49;7.23;;;5.53;;
41343;SDS011;27089;50.022;7.604;2023-02-28T07:39:18;6.57;;;5.30;;
41343;SDS011;27089;50.022;7.604;2023-02-28T07:41:45;6.53;;;4.67;;
41343;SDS011;27089;50.022;7.604;2023-02-28T07:44:12;6.53;;;4.73;;
41343;SDS011;27089;50.022;7.604;2023-02-28T07:46:40;5.50;;;3.77;;
41343;SDS011;27089;50.022;7.604;2023-02-28T07:49:08;5.33;;;4.33;;
41343;SDS011;27089;50.022;7.604;2023-02-28T07:51:35;4.87;;;4.10;;
41343;SDS011;27089;50.022;7.604;2023-02-28T07:54:02;5.33;;;4.10;;
41343;SDS011;27089;50.022;7.604;2023-02-28T07:56:29;4.97;;;3.77;;
41343;SDS011;27089;50.022;7.604;2023-02-28T07:58:56;3.80;;;2.87;;
41343;SDS011;27089;50.022;7.604;2023-02-28T08:01:23;4.53;;;3.13;;
41343;SDS011;27089;50.022;7.604;2023-02-28T08:03:50;19.17;;;10.57;;
41343;SDS011;27089;50.022;7.604;2023-02-28T08:06:20;18.53;;;13.30;;
41343;SDS011;27089;50.022;7.604;2023-02-28T08:08:49;5.53;;;3.87;;
41343;SDS011;27089;50.022;7.604;2023-02-28T08:11:16;3.63;;;2.83;;
41343;SDS011;27089;50.022;7.604;2023-02-28T08:13:44;3.40;;;2.80;;
41343;SDS011;27089;50.022;7.604;2023-02-28T08:16:12;3.90;;;2.60;;
41343;SDS011;27089;50.022;7.604;2023-02-28T08:18:42;5.57;;;2.83;;
41343;SDS011;27089;50.022;7.604;2023-02-28T08:21:09;3.50;;;2.50;;
41343;SDS011;27089;50.022;7.604;2023-02-28T08:23:38;5.03;;;2.93;;
41343;SDS011;27089;50.022;7.604;2023-02-28T08:26:05;6.83;;;2.97;;
41343;SDS011;27089;50.022;7.604;2023-02-28T08:28:32;3.10;;;2.40;;
41343;SDS011;27089;50.022;7.604;2023-02-28T08:30:59;3.73;;;2.63;;
41343;SDS011;27089;50.022;7.604;2023-02-28T08:33:27;4.93;;;2.80;;
41343;SDS011;27089;50.022;7.604;2023-02-28T08:35:54;3.23;;;2.60;;
41343;SDS011;27089;50.022;7.604;2023-02-28T08:38:21;4.93;;;2.70;;
41343;SDS011;27089;50.022;7.604;2023-02-28T08:40:50;3.47;;;2.50;;
41343;SDS011;27089;50.022;7.604;2023-02-28T08:43:24;3.70;;;2.77;;
41343;SDS011;27089;50.022;7.604;2023-02-28T08:45:51;2.73;;;1.90;;
41343;SDS011;27089;50.022;7.604;2023-02-28T08:48:18;2.77;;;2.13;;
41343;SDS011;27089;50.022;7.604;2023-02-28T08:50:54;4.63;;;2.43;;
41343;SDS011;27089;50.022;7.604;2023-02-28T08:53:21;5.33;;;2.67;;
41343;SDS011;27089;50.022;7.604;2023-02-28T08:55:56;4.10;;;2.27;;
41343;SDS011;27089;50.022;7.604;2023-02-28T08:58:23;3.27;;;2.30;;
41343;SDS011;27089;50.022;7.604;2023-02-28T09:00:51;4.07;;;2.37;;
41343;SDS011;27089;50.022;7.604;2023-02-28T09:03:18;3.37;;;2.17;;
41343;SDS011;27089;50.022;7.604;2023-02-28T09:05:51;3.43;;;2.33;;
41343;SDS011;27089;50.022;7.604;2023-02-28T09:08:18;3.13;;;2.10;;
41343;SDS011;27089;50.022;7.604;2023-02-28T09:10:45;4.70;;;2.37;;
41343;SDS011;27089;50.022;7.604;2023-02-28T09:13:14;4.23;;;2.47;;
41343;SDS011;27089;50.022;7.604;2023-02-28T09:15:41;2.63;;;2.20;;
41343;SDS011;27089;50.022;7.604;2023-02-28T09:18:08;3.67;;;2.10;;
41343;SDS011;27089;50.022;7.604;2023-02-28T09:20:37;4.23;;;2.40;;
41343;SDS011;27089;50.022;7.604;2023-02-28T09:23:04;2.93;;;2.30;;
41343;SDS011;27089;50.022;7.604;2023-02-28T09:25:31;3.60;;;2.40;;
41343;SDS011;27089;50.022;7.604;2023-02-28T09:27:59;4.13;;;3.73;;
41343;SDS011;27089;50.022;7.604;2023-02-28T09:30:27;4.57;;;2.83;;
41343;SDS011;27089;50.022;7.604;2023-02-28T09:32:54;4.97;;;2.50;;
41343;SDS011;27089;50.022;7.604;2023-02-28T09:35:21;2.53;;;2.07;;
41343;SDS011;27089;50.022;7.604;2023-02-28T09:37:50;2.63;;;2.40;;
41343;SDS011;27089;50.022;7.604;2023-02-28T09:40:18;4.87;;;2.83;;
41343;SDS011;27089;50.022;7.604;2023-02-28T09:42:47;4.03;;;2.43;;
41343;SDS011;27089;50.022;7.604;2023-02-28T09:45:19;6.20;;;3.73;;
41343;SDS011;27089;50.022;7.604;2023-02-28T09:47:52;4.93;;;2.30;;
41343;SDS011;27089;50.022;7.604;2023-02-28T09:50:29;6.33;;;5.77;;
41343;SDS011;27089;50.022;7.604;2023-02-28T09:53:02;5.50;;;3.20;;
41343;SDS011;27089;50.022;7.604;2023-02-28T09:55:37;4.67;;;2.07;;
41343;SDS011;27089;50.022;7.604;2023-02-28T09:58:09;4.13;;;3.03;;
41343;SDS011;27089;50.022;7.604;2023-02-28T10:00:44;3.40;;;2.40;;
41343;SDS011;27089;50.022;7.604;2023-02-28T10:03:32;3.90;;;2.87;;
41343;SDS011;27089;50.022;7.604;2023-02-28T10:06:04;11.30;;;5.57;;
41343;SDS011;27089;50.022;7.604;2023-02-28T10:08:37;4.23;;;2.90;;
41343;SDS011;27089;50.022;7.604;2023-02-28T10:11:10;7.67;;;4.50;;
41343;SDS011;27089;50.022;7.604;2023-02-28T10:13:45;4.57;;;2.47;;
41343;SDS011;27089;50.022;7.604;2023-02-28T10:16:22;10.57;;;4.73;;
41343;SDS011;27089;50.022;7.604;2023-02-28T10:18:56;5.00;;;3.10;;
41343;SDS011;27089;50.022;7.604;2023-02-28T10:21:29;7.00;;;4.93;;
41343;SDS011;27089;50.022;7.604;2023-02-28T10:24:03;11.67;;;5.03;;
41343;SDS011;27089;50.022;7.604;2023-02-28T10:26:37;6.07;;;3.17;;
41343;SDS011;27089;50.022;7.604;2023-02-28T10:29:04;6.43;;;4.70;;
41343;SDS011;27089;50.022;7.604;2023-02-28T10:31:34;5.57;;;4.33;;
41343;SDS011;27089;50.022;7.604;2023-02-28T10:34:02;15.73;;;10.13;;
41343;SDS011;27089;50.022;7.604;2023-02-28T10:36:31;5.27;;;3.97;;
41343;SDS011;27089;50.022;7.604;2023-02-28T10:38:58;3.80;;;3.00;;
41343;SDS011;27089;50.022;7.604;2023-02-28T10:41:26;4.43;;;3.27;;
41343;SDS011;27089;50.022;7.604;2023-02-28T10:46:41;4.57;;;3.03;;
41343;SDS011;27089;50.022;7.604;2023-02-28T10:49:14;6.70;;;4.10;;
41343;SDS011;27089;50.022;7.604;2023-02-28T10:51:46;4.40;;;3.30;;
41343;SDS011;27089;50.022;7.604;2023-02-28T10:54:15;3.23;;;2.67;;
41343;SDS011;27089;50.022;7.604;2023-02-28T10:56:44;27.40;;;14.37;;
41343;SDS011;27089;50.022;7.604;2023-02-28T10:59:28;6.27;;;3.53;;
41343;SDS011;27089;50.022;7.604;2023-02-28T11:01:56;25.77;;;13.40;;
41343;SDS011;27089;50.022;7.604;2023-02-28T11:04:35;5.33;;;3.00;;
41343;SDS011;27089;50.022;7.604;2023-02-28T11:07:05;8.83;;;4.50;;
41343;SDS011;27089;50.022;7.604;2023-02-28T11:09:44;3.40;;;2.97;;
41343;SDS011;27089;50.022;7.604;2023-02-28T11:12:19;5.00;;;3.20;;
41343;SDS011;27089;50.022;7.604;2023-02-28T11:14:48;7.43;;;4.73;;
41343;SDS011;27089;50.022;7.604;2023-02-28T11:17:19;4.27;;;2.73;;
41343;SDS011;27089;50.022;7.604;2023-02-28T11:19:50;14.67;;;6.10;;
41343;SDS011;27089;50.022;7.604;2023-02-28T11:22:21;4.47;;;3.30;;
41343;SDS011;27089;50.022;7.604;2023-02-28T11:24:54;5.33;;;3.90;;
41343;SDS011;27089;50.022;7.604;2023-02-28T11:30:25;7.00;;;4.07;;
41343;SDS011;27089;50.022;7.604;2023-02-28T11:32:54;5.37;;;3.53;;
41343;SDS011;27089;50.022;7.604;2023-02-28T11:35:23;10.63;;;5.17;;
41343;SDS011;27089;50.022;7.604;2023-02-28T11:37:52;5.97;;;3.80;;
41343;SDS011;27089;50.022;7.604;2023-02-28T11:40:22;4.80;;;3.30;;
41343;SDS011;27089;50.022;7.604;2023-02-28T11:42:57;5.27;;;3.37;;
41343;SDS011;27089;50.022;7.604;2023-02-28T11:45:39;5.47;;;3.67;;
41343;SDS011;27089;50.022;7.604;2023-02-28T11:48:14;4.70;;;3.50;;
41343;SDS011;27089;50.022;7.604;2023-02-28T11:50:49;3.23;;;2.70;;
41343;SDS011;27089;50.022;7.604;2023-02-28T11:53:30;3.60;;;2.83;;
41343;SDS011;27089;50.022;7.604;2023-02-28T11:56:09;3.87;;;2.90;;
41343;SDS011;27089;50.022;7.604;2023-02-28T11:58:45;5.13;;;3.40;;
41343;SDS011;27089;50.022;7.604;2023-02-28T12:01:32;4.50;;;2.97;;
41343;SDS011;27089;50.022;7.604;2023-02-28T12:04:18;6.47;;;3.13;;
41343;SDS011;27089;50.022;7.604;2023-02-28T12:07:00;3.80;;;2.80;;
41343;SDS011;27089;50.022;7.604;2023-02-28T12:09:39;3.77;;;3.30;;
41343;SDS011;27089;50.022;7.604;2023-02-28T12:12:17;5.40;;;3.27;;
41343;SDS011;27089;50.022;7.604;2023-02-28T12:14:54;5.43;;;3.67;;
41343;SDS011;27089;50.022;7.604;2023-02-28T12:17:34;5.43;;;3.50;;
41343;SDS011;27089;50.022;7.604;2023-02-28T12:20:13;8.60;;;4.13;;
41343;SDS011;27089;50.022;7.604;2023-02-28T12:22:52;5.57;;;3.90;;
41343;SDS011;27089;50.022;7.604;2023-02-28T12:25:37;5.40;;;3.43;;
41343;SDS011;27089;50.022;7.604;2023-02-28T12:28:12;5.83;;;3.40;;
41343;SDS011;27089;50.022;7.604;2023-02-28T12:30:44;4.33;;;3.03;;
41343;SDS011;27089;50.022;7.604;2023-02-28T12:33:17;6.43;;;3.87;;
41343;SDS011;27089;50.022;7.604;2023-02-28T12:35:51;5.23;;;3.97;;
41343;SDS011;27089;50.022;7.604;2023-02-28T12:38:23;5.83;;;4.20;;
41343;SDS011;27089;50.022;7.604;2023-02-28T12:40:53;4.70;;;3.57;;
41343;SDS011;27089;50.022;7.604;2023-02-28T12:43:25;3.90;;;3.37;;
41343;SDS011;27089;50.022;7.604;2023-02-28T12:45:58;5.73;;;3.67;;
41343;SDS011;27089;50.022;7.604;2023-02-28T12:48:30;5.67;;;3.87;;
41343;SDS011;27089;50.022;7.604;2023-02-28T12:51:04;4.80;;;3.43;;
41343;SDS011;27089;50.022;7.604;2023-02-28T12:53:35;5.17;;;3.77;;
41343;SDS011;27089;50.022;7.604;2023-02-28T12:56:12;5.23;;;3.80;;
41343;SDS011;27089;50.022;7.604;2023-02-28T12:58:45;6.13;;;3.90;;
41343;SDS011;27089;50.022;7.604;2023-02-28T13:04:34;5.43;;;3.70;;
41343;SDS011;27089;50.022;7.604;2023-02-28T13:10:26;6.10;;;4.00;;
41343;SDS011;27089;50.022;7.604;2023-02-28T13:13:05;5.40;;;4.20;;
41343;SDS011;27089;50.022;7.604;2023-02-28T13:15:32;4.27;;;3.57;;
41343;SDS011;27089;50.022;7.604;2023-02-28T13:18:03;5.40;;;3.97;;
41343;SDS011;27089;50.022;7.604;2023-02-28T13:20:32;7.53;;;4.30;;
41343;SDS011;27089;50.022;7.604;2023-02-28T13:23:01;4.33;;;3.30;;
41343;SDS011;27089;50.022;7.604;2023-02-28T13:31:20;7.07;;;3.80;;
41343;SDS011;27089;50.022;7.604;2023-02-28T13:36:39;5.40;;;4.10;;
41343;SDS011;27089;50.022;7.604;2023-02-28T13:42:31;5.07;;;3.70;;
41343;SDS011;27089;50.022;7.604;2023-02-28T13:45:21;7.47;;;4.27;;
41343;SDS011;27089;50.022;7.604;2023-02-28T13:47:54;4.93;;;3.73;;
41343;SDS011;27089;50.022;7.604;2023-02-28T13:50:29;6.13;;;4.10;;
41343;SDS011;27089;50.022;7.604;2023-02-28T13:56:10;5.40;;;3.60;;
41343;SDS011;27089;50.022;7.604;2023-02-28T13:58:57;5.17;;;3.90;;
41343;SDS011;27089;50.022;7.604;2023-02-28T14:01:38;6.70;;;4.03;;
41343;SDS011;27089;50.022;7.604;2023-02-28T14:07:18;5.53;;;3.70;;
41343;SDS011;27089;50.022;7.604;2023-02-28T14:09:51;5.20;;;4.23;;
41343;SDS011;27089;50.022;7.604;2023-02-28T14:15:27;6.03;;;4.50;;
41343;SDS011;27089;50.022;7.604;2023-02-28T14:18:03;5.20;;;3.90;;
41343;SDS011;27089;50.022;7.604;2023-02-28T14:20:39;6.63;;;4.33;;
41343;SDS011;27089;50.022;7.604;2023-02-28T14:23:09;6.87;;;4.80;;
41343;SDS011;27089;50.022;7.604;2023-02-28T14:25:43;5.13;;;4.00;;
41343;SDS011;27089;50.022;7.604;2023-02-28T14:28:19;5.47;;;4.40;;
41343;SDS011;27089;50.022;7.604;2023-02-28T14:30:59;5.80;;;3.37;;
41343;SDS011;27089;50.022;7.604;2023-02-28T14:33:42;4.47;;;3.77;;
41343;SDS011;27089;50.022;7.604;2023-02-28T14:36:31;5.63;;;4.40;;
41343;SDS011;27089;50.022;7.604;2023-02-28T14:39:01;6.70;;;4.50;;
41343;SDS011;27089;50.022;7.604;2023-02-28T14:41:33;5.87;;;4.33;;
41343;SDS011;27089;50.022;7.604;2023-02-28T14:44:03;8.40;;;4.30;;
41343;SDS011;27089;50.022;7.604;2023-02-28T14:46:41;6.93;;;4.57;;
41343;SDS011;27089;50.022;7.604;2023-02-28T14:49:13;6.47;;;4.70;;
41343;SDS011;27089;50.022;7.604;2023-02-28T14:51:44;6.63;;;4.30;;
41343;SDS011;27089;50.022;7.604;2023-02-28T14:54:13;7.97;;;4.57;;
41343;SDS011;27089;50.022;7.604;2023-02-28T14:56:42;6.53;;;4.70;;
41343;SDS011;27089;50.022;7.604;2023-02-28T14:59:23;6.27;;;4.87;;
41343;SDS011;27089;50.022;7.604;2023-02-28T15:01:53;9.43;;;5.03;;
41343;SDS011;27089;50.022;7.604;2023-02-28T15:04:51;6.63;;;4.97;;
41343;SDS011;27089;50.022;7.604;2023-02-28T15:07:19;6.13;;;4.17;;
41343;SDS011;27089;50.022;7.604;2023-02-28T15:10:06;6.50;;;5.00;;
41343;SDS011;27089;50.022;7.604;2023-02-28T15:12:37;6.00;;;4.50;;
41343;SDS011;27089;50.022;7.604;2023-02-28T15:15:13;7.77;;;4.80;;
41343;SDS011;27089;50.022;7.604;2023-02-28T15:17:42;6.13;;;5.07;;
41343;SDS011;27089;50.022;7.604;2023-02-28T15:20:12;6.43;;;5.03;;
41343;SDS011;27089;50.022;7.604;2023-02-28T15:22:41;6.67;;;4.27;;
41343;SDS011;27089;50.022;7.604;2023-02-28T15:25:09;8.17;;;4.80;;
41343;SDS011;27089;50.022;7.604;2023-02-28T15:27:42;5.73;;;4.23;;
41343;SDS011;27089;50.022;7.604;2023-02-28T15:30:14;5.80;;;4.57;;
41343;SDS011;27089;50.022;7.604;2023-02-28T15:32:45;6.37;;;4.63;;
41343;SDS011;27089;50.022;7.604;2023-02-28T15:35:30;5.57;;;4.10;;
41343;SDS011;27089;50.022;7.604;2023-02-28T15:38:00;6.17;;;4.27;;
41343;SDS011;27089;50.022;7.604;2023-02-28T15:40:28;5.23;;;4.50;;
41343;SDS011;27089;50.022;7.604;2023-02-28T15:42:57;6.80;;;4.27;;
41343;SDS011;27089;50.022;7.604;2023-02-28T15:45:26;6.97;;;5.00;;
41343;SDS011;27089;50.022;7.604;2023-02-28T15:47:57;9.57;;;5.30;;
41343;SDS011;27089;50.022;7.604;2023-02-28T15:50:24;6.10;;;4.90;;
41343;SDS011;27089;50.022;7.604;2023-02-28T15:52:54;7.10;;;4.90;;